createdAt,value
2019-03-23T00:00:23.954Z,129.60
2019-03-23T00:02:53.491Z,111.73
2019-03-23T00:05:23.205Z,346.37
2019-03-23T00:07:52.874Z,271.03
2019-03-23T00:10:22.494Z,169.63
2019-03-23T00:12:52.023Z,154.20
2019-03-23T00:15:21.581Z,148.90
2019-03-23T00:17:51.479Z,123.23
2019-03-23T00:20:21.008Z,185.03
2019-03-23T00:22:50.594Z,299.80
2019-03-23T00:25:20.147Z,704.33
2019-03-23T00:27:49.705Z,655.27
2019-03-23T00:30:19.267Z,783.00
2019-03-23T00:32:48.797Z,394.00
2019-03-23T00:35:18.397Z,317.57
2019-03-23T00:37:47.942Z,325.60
2019-03-23T00:40:17.508Z,488.47
2019-03-23T00:42:47.087Z,954.70
2019-03-23T00:45:16.635Z,743.33
2019-03-23T00:47:46.328Z,447.03
2019-03-23T00:50:16.328Z,531.30
2019-03-23T00:52:45.983Z,358.13
2019-03-23T00:55:15.543Z,408.53
2019-03-23T00:57:45.085Z,696.90
2019-03-23T01:00:14.689Z,786.03
2019-03-23T01:02:44.597Z,903.30
2019-03-23T01:05:14.155Z,816.07
2019-03-23T01:07:43.717Z,705.87
2019-03-23T01:10:13.265Z,634.63
2019-03-23T01:12:42.835Z,636.47
2019-03-23T01:15:14.097Z,292.00
2019-03-23T01:17:43.684Z,695.30
2019-03-23T01:20:13.638Z,254.50
2019-03-23T01:22:43.186Z,591.63
2019-03-23T01:25:12.739Z,551.43
2019-03-23T01:27:42.659Z,380.27
2019-03-23T01:30:14.494Z,250.67
2019-03-23T01:32:44.050Z,335.40
2019-03-23T01:35:13.599Z,404.13
2019-03-23T01:37:43.160Z,333.33
2019-03-23T01:40:32.077Z,169.33
2019-03-23T01:43:01.953Z,183.83
2019-03-23T01:45:32.588Z,137.90
2019-03-23T01:48:02.167Z,154.67
2019-03-23T01:50:31.717Z,87.43
2019-03-23T01:53:01.278Z,237.33
2019-03-23T01:55:30.859Z,95.33
2019-03-23T01:58:00.407Z,79.40
2019-03-23T02:00:30.074Z,80.27
2019-03-23T02:02:59.607Z,94.43
2019-03-23T02:05:29.176Z,267.70
2019-03-23T02:07:58.764Z,128.23
2019-03-23T02:10:30.261Z,181.53
2019-03-23T02:13:00.840Z,97.43
2019-03-23T02:15:30.772Z,162.13
2019-03-23T02:18:00.323Z,113.93
2019-03-23T02:20:29.902Z,107.57
2019-03-23T02:22:59.438Z,93.70
2019-03-23T02:25:29.021Z,327.77
2019-03-23T02:27:58.594Z,111.17
2019-03-23T02:30:28.162Z,101.80
2019-03-23T02:32:57.734Z,305.17
2019-03-23T02:35:27.293Z,153.10
2019-03-23T02:37:56.903Z,125.90
2019-03-23T02:40:26.444Z,92.70
2019-03-23T02:42:55.995Z,92.73
2019-03-23T02:45:25.566Z,102.70
2019-03-23T02:47:55.133Z,91.27
2019-03-23T02:50:24.722Z,137.97
2019-03-23T02:52:54.255Z,371.63
2019-03-23T02:55:23.878Z,537.13
2019-03-23T02:57:53.432Z,103.63
2019-03-23T03:00:23.006Z,132.87
2019-03-23T03:02:52.594Z,122.53
2019-03-23T03:05:22.122Z,119.00
2019-03-23T03:07:51.687Z,297.50
2019-03-23T03:10:41.021Z,193.60
2019-03-23T03:13:10.606Z,272.03
2019-03-23T03:15:40.175Z,349.83
2019-03-23T03:18:09.716Z,500.53
2019-03-23T03:20:39.291Z,676.40
2019-03-23T03:23:08.968Z,602.33
2019-03-23T03:25:38.669Z,697.77
2019-03-23T03:28:08.225Z,894.23
2019-03-23T03:30:37.780Z,1010.67
2019-03-23T03:33:07.387Z,696.13
2019-03-23T03:35:36.918Z,1192.37
2019-03-23T03:38:06.487Z,1140.83
2019-03-23T03:40:55.414Z,702.73
2019-03-23T03:43:24.998Z,760.97
2019-03-23T03:45:54.915Z,1082.43
2019-03-23T03:48:24.464Z,1139.07
2019-03-23T03:50:54.018Z,951.37
2019-03-23T03:53:23.564Z,803.00
2019-03-23T03:55:53.444Z,1190.13
2019-03-23T03:58:22.993Z,1442.43
2019-03-23T04:00:52.553Z,1035.13
2019-03-23T04:03:22.113Z,824.27
2019-03-23T04:05:51.671Z,871.60
2019-03-23T04:08:21.243Z,919.57
2019-03-23T04:10:50.989Z,754.67
2019-03-23T04:13:20.553Z,1156.13
2019-03-23T04:15:50.141Z,1071.03
2019-03-23T04:18:20.799Z,994.73
2019-03-23T04:20:50.377Z,578.70
2019-03-23T04:23:19.933Z,661.07
2019-03-23T04:25:49.509Z,763.17
2019-03-23T04:28:19.156Z,610.53
2019-03-23T04:30:48.691Z,766.03
2019-03-23T04:33:18.242Z,583.23
2019-03-23T04:35:47.786Z,711.93
2019-03-23T04:38:22.533Z,660.53
2019-03-23T04:40:48.818Z,1169.73
2019-03-23T04:43:18.365Z,804.10
2019-03-23T04:45:48.051Z,923.33
2019-03-23T04:48:18.605Z,905.33
2019-03-23T04:50:48.138Z,640.17
2019-03-23T04:53:17.828Z,621.03
2019-03-23T04:55:47.384Z,685.03
2019-03-23T04:58:16.931Z,1086.37
2019-03-23T05:00:46.501Z,1150.83
2019-03-23T05:03:35.407Z,1524.40
2019-03-23T05:06:05.056Z,1123.77
2019-03-23T05:08:34.843Z,875.70
2019-03-23T05:11:04.658Z,1458.47
2019-03-23T05:13:34.318Z,846.77
2019-03-23T05:16:04.880Z,1710.50
2019-03-23T05:18:34.549Z,1676.60
2019-03-23T05:21:04.108Z,1312.20
2019-03-23T05:23:33.788Z,1387.03
2019-03-23T05:26:03.356Z,1198.37
2019-03-23T05:28:32.908Z,1042.33
2019-03-23T05:31:02.782Z,1162.70
2019-03-23T05:33:32.347Z,1702.00
2019-03-23T05:36:01.895Z,643.20
2019-03-23T05:38:31.470Z,1025.60
2019-03-23T05:41:01.029Z,1037.90
2019-03-23T05:43:30.671Z,1065.10
2019-03-23T05:46:00.245Z,959.73
2019-03-23T05:48:29.802Z,938.97
2019-03-23T05:50:59.369Z,775.63
2019-03-23T05:53:29.074Z,863.37
2019-03-23T05:55:58.638Z,561.13
2019-03-23T05:58:28.193Z,535.33
2019-03-23T06:00:58.075Z,665.50
2019-03-23T06:03:27.610Z,879.23
2019-03-23T06:05:57.167Z,863.27
2019-03-23T06:08:27.085Z,719.20
2019-03-23T06:10:56.754Z,611.77
2019-03-23T06:13:26.615Z,607.63
2019-03-23T06:15:56.519Z,600.53
2019-03-23T06:18:26.069Z,747.40
2019-03-23T06:20:55.809Z,635.73
2019-03-23T06:23:25.352Z,494.57
2019-03-23T06:25:54.920Z,440.90
2019-03-23T06:28:24.467Z,398.43
2019-03-23T06:30:54.027Z,342.50
2019-03-23T06:33:23.622Z,499.67
2019-03-23T06:35:53.511Z,276.80
2019-03-23T06:38:23.079Z,345.47
2019-03-23T06:40:52.639Z,243.97
2019-03-23T06:43:22.291Z,279.13
2019-03-23T06:45:51.871Z,164.20
2019-03-23T06:48:21.527Z,194.60
2019-03-23T06:50:51.064Z,130.43
2019-03-23T06:53:20.645Z,125.93
2019-03-23T06:55:50.543Z,104.77
2019-03-23T06:58:21.046Z,128.47
2019-03-23T07:00:50.604Z,182.70
2019-03-23T07:03:20.290Z,120.53
2019-03-23T07:05:49.833Z,135.00
2019-03-23T07:08:19.371Z,109.37
2019-03-23T07:10:49.071Z,117.73
2019-03-23T07:13:18.609Z,106.70
2019-03-23T07:15:48.181Z,88.13
2019-03-23T07:18:17.730Z,93.87
2019-03-23T07:20:47.255Z,79.27
2019-03-23T07:23:16.890Z,77.50
2019-03-23T07:25:46.411Z,82.70
2019-03-23T07:28:15.970Z,77.63
2019-03-23T07:30:45.509Z,75.50
2019-03-23T07:33:15.359Z,73.67
2019-03-23T07:35:45.287Z,67.30
2019-03-23T07:38:14.810Z,71.60
2019-03-23T07:40:46.643Z,65.50
2019-03-23T07:43:16.205Z,72.47
2019-03-23T07:45:45.751Z,77.10
2019-03-23T07:48:15.314Z,65.53
2019-03-23T07:50:44.844Z,64.53
2019-03-23T07:53:14.439Z,62.37
2019-03-23T07:55:43.997Z,61.27
2019-03-23T07:58:13.559Z,67.47
2019-03-23T08:00:43.099Z,66.80
2019-03-23T08:03:12.777Z,67.33
2019-03-23T08:05:42.378Z,61.90
2019-03-23T08:08:12.218Z,62.83
2019-03-23T08:10:41.772Z,63.90
2019-03-23T08:13:11.386Z,63.07
2019-03-23T08:15:40.992Z,65.80
2019-03-23T08:18:10.577Z,64.03
2019-03-23T08:20:40.477Z,65.27
2019-03-23T08:23:10.019Z,62.70
2019-03-23T08:25:39.583Z,61.47
2019-03-23T08:28:09.118Z,61.53
2019-03-23T08:30:39.726Z,61.80
2019-03-23T08:33:09.266Z,61.50
2019-03-23T08:35:38.834Z,62.03
2019-03-23T08:38:08.397Z,64.13
2019-03-23T08:40:38.082Z,57.97
2019-03-23T08:43:07.687Z,58.37
2019-03-23T08:45:37.344Z,62.40
2019-03-23T08:48:07.010Z,60.10
2019-03-23T08:50:36.899Z,58.77
2019-03-23T08:53:06.443Z,60.03
2019-03-23T08:55:36.197Z,58.10
2019-03-23T08:58:06.252Z,58.53
2019-03-23T09:00:35.813Z,57.83
2019-03-23T09:03:05.758Z,57.67
2019-03-23T09:05:35.446Z,54.20
2019-03-23T09:08:06.044Z,54.13
2019-03-23T09:10:35.585Z,52.27
2019-03-23T09:13:05.161Z,55.53
2019-03-23T09:15:36.631Z,51.73
2019-03-23T09:18:06.178Z,50.40
2019-03-23T09:20:36.297Z,48.57
2019-03-23T09:23:05.845Z,46.73
2019-03-23T09:25:35.686Z,47.80
2019-03-23T09:28:05.246Z,46.53
2019-03-23T09:30:34.790Z,51.27
2019-03-23T09:33:04.380Z,49.10
2019-03-23T09:35:33.924Z,47.17
2019-03-23T09:38:03.486Z,48.07
2019-03-23T09:40:33.039Z,46.87
2019-03-23T09:43:02.586Z,46.03
2019-03-23T09:45:32.202Z,46.27
2019-03-23T09:48:01.754Z,45.03
2019-03-23T09:50:31.321Z,51.90
2019-03-23T09:53:00.893Z,51.10
2019-03-23T09:55:30.441Z,51.37
2019-03-23T09:58:00.190Z,53.57
2019-03-23T10:00:29.735Z,49.80
2019-03-23T10:02:59.297Z,50.67
2019-03-23T10:05:28.865Z,49.50
2019-03-23T10:07:58.430Z,48.27
2019-03-23T10:10:27.995Z,49.17
2019-03-23T10:12:57.541Z,45.20
2019-03-23T10:15:27.104Z,50.47
2019-03-23T10:17:56.681Z,46.17
2019-03-23T10:20:26.222Z,44.73
2019-03-23T10:22:56.024Z,46.60
2019-03-23T10:25:25.580Z,44.87
2019-03-23T10:27:55.141Z,41.30
2019-03-23T10:30:24.699Z,44.87
2019-03-23T10:32:54.232Z,41.90
2019-03-23T10:35:23.952Z,43.20
2019-03-23T10:37:53.510Z,41.00
2019-03-23T10:40:31.869Z,42.90
2019-03-23T10:42:54.622Z,45.70
2019-03-23T10:45:24.314Z,47.00
2019-03-23T10:50:23.756Z,44.80
2019-03-23T10:52:53.313Z,47.00
2019-03-23T10:55:22.866Z,44.83
2019-03-23T10:57:52.421Z,48.67
2019-03-23T11:00:22.304Z,47.87
2019-03-23T11:02:51.977Z,51.87
2019-03-23T11:05:21.851Z,50.57
2019-03-23T11:07:51.416Z,49.63
2019-03-23T11:10:20.982Z,53.30
2019-03-23T11:12:50.558Z,53.23
2019-03-23T11:15:20.121Z,52.30
2019-03-23T11:17:50.587Z,54.07
2019-03-23T11:20:20.160Z,53.50
2019-03-23T11:22:49.717Z,51.00
2019-03-23T11:25:19.261Z,47.00
2019-03-23T11:27:49.108Z,45.47
2019-03-23T11:30:18.707Z,45.57
2019-03-23T11:32:48.295Z,50.03
2019-03-23T11:35:18.070Z,43.70
2019-03-23T11:37:47.948Z,51.47
2019-03-23T11:40:17.598Z,47.73
2019-03-23T11:42:50.232Z,45.20
2019-03-23T11:45:18.341Z,42.07
2019-03-23T11:47:47.985Z,45.63
2019-03-23T11:50:17.478Z,42.50
2019-03-23T11:52:47.432Z,43.33
2019-03-23T11:55:16.961Z,45.50
2019-03-23T11:57:46.541Z,44.13
2019-03-23T12:00:16.191Z,50.07
2019-03-23T12:02:46.266Z,43.27
2019-03-23T12:05:15.843Z,51.73
2019-03-23T12:07:45.407Z,47.30
2019-03-23T12:10:14.984Z,45.97
2019-03-23T12:12:44.531Z,48.97
2019-03-23T12:15:14.102Z,50.93
2019-03-23T12:17:43.654Z,45.60
2019-03-23T12:20:13.243Z,46.90
2019-03-23T12:22:42.771Z,46.83
2019-03-23T12:25:12.334Z,47.30
2019-03-23T12:27:41.905Z,48.50
2019-03-23T12:30:17.844Z,49.97
2019-03-23T12:32:47.679Z,46.67
2019-03-23T12:35:18.270Z,43.17
2019-03-23T12:37:47.829Z,51.93
2019-03-23T12:40:17.364Z,45.83
2019-03-23T12:42:46.911Z,50.10
2019-03-23T12:45:16.484Z,43.23
2019-03-23T12:47:46.019Z,42.00
2019-03-23T12:50:15.553Z,45.73
2019-03-23T12:52:45.103Z,42.70
2019-03-23T12:55:14.909Z,42.97
2019-03-23T12:57:44.452Z,41.07
2019-03-23T13:00:17.704Z,40.50
2019-03-23T13:02:47.252Z,39.10
2019-03-23T13:05:16.818Z,37.67
2019-03-23T13:07:46.368Z,41.07
2019-03-23T13:10:15.918Z,36.10
2019-03-23T13:12:45.493Z,46.20
2019-03-23T13:15:16.549Z,52.47
2019-03-23T13:17:46.105Z,44.13
2019-03-23T13:20:28.344Z,39.03
2019-03-23T13:22:57.963Z,39.90
2019-03-23T13:25:27.503Z,39.07
2019-03-23T13:27:57.070Z,43.23
2019-03-23T13:30:26.638Z,42.20
2019-03-23T13:32:56.176Z,39.07
2019-03-23T13:35:25.754Z,37.33
2019-03-23T13:37:55.314Z,42.60
2019-03-23T13:40:24.867Z,38.87
2019-03-23T13:42:54.427Z,42.23
2019-03-23T13:45:23.994Z,39.77
2019-03-23T13:47:54.933Z,39.17
2019-03-23T13:50:28.761Z,41.63
2019-03-23T13:52:58.355Z,40.37
2019-03-23T13:55:31.018Z,38.17
2019-03-23T13:58:09.620Z,39.50
2019-03-23T14:00:39.174Z,36.00
2019-03-23T14:03:08.710Z,35.70
2019-03-23T14:05:38.798Z,36.23
2019-03-23T14:08:08.706Z,38.83
2019-03-23T14:10:38.288Z,37.27
2019-03-23T14:13:07.831Z,38.73
2019-03-23T14:15:38.850Z,37.73
2019-03-23T14:18:08.409Z,38.37
2019-03-23T14:20:37.950Z,37.07
2019-03-23T14:23:07.548Z,36.70
2019-03-23T14:25:37.084Z,38.23
2019-03-23T14:28:08.194Z,35.27
2019-03-23T14:30:37.921Z,35.53
2019-03-23T14:33:07.472Z,35.83
2019-03-23T14:35:37.047Z,36.67
2019-03-23T14:38:06.727Z,37.77
2019-03-23T14:40:36.282Z,33.60
2019-03-23T14:43:05.853Z,39.43
2019-03-23T14:45:36.984Z,35.27
2019-03-23T14:48:06.783Z,33.33
2019-03-23T14:50:37.419Z,38.57
2019-03-23T14:53:07.367Z,31.50
2019-03-23T14:55:37.553Z,35.27
2019-03-23T14:58:08.207Z,32.60
2019-03-23T15:00:37.774Z,32.07
2019-03-23T15:03:07.323Z,34.00
2019-03-23T15:05:36.906Z,31.23
2019-03-23T15:08:06.508Z,35.37
2019-03-23T15:10:36.448Z,37.70
2019-03-23T15:13:06.014Z,34.43
2019-03-23T15:15:35.582Z,31.23
2019-03-23T15:18:05.204Z,29.47
2019-03-23T15:20:34.846Z,27.77
2019-03-23T15:23:16.902Z,34.10
2019-03-23T15:25:46.456Z,36.27
2019-03-23T15:28:16.031Z,38.90
2019-03-23T15:30:45.911Z,36.63
2019-03-23T15:33:15.453Z,31.67
2019-03-23T15:35:45.063Z,33.13
2019-03-23T15:38:14.695Z,31.60
2019-03-23T15:40:44.252Z,30.17
2019-03-23T15:43:13.806Z,31.90
2019-03-23T15:45:43.357Z,33.27
2019-03-23T15:48:12.940Z,29.27
2019-03-23T15:50:42.607Z,32.80
2019-03-23T15:53:12.164Z,32.00
2019-03-23T15:55:42.076Z,31.50
2019-03-23T15:58:11.634Z,31.37
2019-03-23T16:00:41.207Z,35.23
2019-03-23T16:03:10.750Z,33.40
2019-03-23T16:05:40.303Z,33.27
2019-03-23T16:08:09.869Z,39.37
2019-03-23T16:10:39.483Z,30.43
2019-03-23T16:13:09.071Z,32.80
2019-03-23T16:15:38.762Z,46.53
2019-03-23T16:18:08.324Z,38.17
2019-03-23T16:20:38.970Z,37.13
2019-03-23T16:23:08.783Z,38.20
2019-03-23T16:25:38.327Z,47.77
2019-03-23T16:28:07.991Z,66.83
2019-03-23T16:30:37.652Z,76.23
2019-03-23T16:33:07.223Z,141.53
2019-03-23T16:35:36.789Z,141.40
2019-03-23T16:38:06.354Z,71.33
2019-03-23T16:40:36.015Z,114.67
2019-03-23T16:43:06.370Z,154.30
2019-03-23T16:45:35.939Z,86.33
2019-03-23T16:48:05.501Z,81.10
2019-03-23T16:50:35.054Z,65.07
2019-03-23T16:53:04.621Z,65.93
2019-03-23T16:55:34.224Z,63.63
2019-03-23T16:58:03.890Z,87.80
2019-03-23T17:00:35.122Z,68.90
2019-03-23T17:03:25.567Z,84.53
2019-03-23T17:05:55.557Z,112.73
2019-03-23T17:08:25.095Z,121.60
2019-03-23T17:10:54.760Z,139.73
2019-03-23T17:13:24.323Z,217.57
2019-03-23T17:15:53.885Z,231.23
2019-03-23T17:18:23.594Z,261.43
2019-03-23T17:20:54.351Z,250.57
2019-03-23T17:23:23.903Z,208.87
2019-03-23T17:25:53.461Z,199.87
2019-03-23T17:28:23.333Z,209.17
2019-03-23T17:30:54.167Z,192.60
2019-03-23T17:33:24.674Z,187.63
2019-03-23T17:35:54.245Z,155.67
2019-03-23T17:38:23.824Z,145.73
2019-03-23T17:40:53.359Z,117.63
2019-03-23T17:43:22.963Z,120.63
2019-03-23T17:45:52.494Z,112.47
2019-03-23T17:48:23.469Z,108.50
2019-03-23T17:50:53.015Z,104.07
2019-03-23T17:53:22.583Z,111.13
2019-03-23T17:55:52.166Z,86.53
2019-03-23T17:58:21.705Z,101.57
2019-03-23T18:00:51.278Z,141.37
2019-03-23T18:03:20.832Z,124.23
2019-03-23T18:05:50.375Z,92.60
2019-03-23T18:08:19.997Z,108.83
2019-03-23T18:10:49.518Z,104.20
2019-03-23T18:13:19.354Z,100.37
2019-03-23T18:15:48.906Z,98.17
2019-03-23T18:18:18.751Z,103.40
2019-03-23T18:20:48.386Z,87.07
2019-03-23T18:23:18.311Z,80.03
2019-03-23T18:25:47.855Z,79.73
2019-03-23T18:28:17.461Z,80.37
2019-03-23T18:30:48.013Z,76.90
2019-03-23T18:33:17.939Z,66.03
2019-03-23T18:35:47.479Z,60.13
2019-03-23T18:38:17.088Z,70.20
2019-03-23T18:40:46.968Z,78.60
2019-03-23T18:43:26.751Z,93.23
2019-03-23T18:45:48.070Z,93.77
2019-03-23T18:48:17.600Z,119.07
2019-03-23T18:50:47.183Z,119.37
2019-03-23T18:53:17.638Z,104.07
2019-03-23T18:55:49.165Z,118.70
2019-03-23T18:58:19.066Z,108.20
2019-03-23T19:00:48.655Z,94.90
2019-03-23T19:03:18.175Z,71.00
2019-03-23T19:05:48.071Z,86.50
2019-03-23T19:08:17.643Z,58.87
2019-03-23T19:10:47.538Z,60.93
2019-03-23T19:13:17.062Z,63.43
2019-03-23T19:15:46.630Z,78.87
2019-03-23T19:18:16.461Z,78.07
2019-03-23T19:20:46.005Z,83.80
2019-03-23T19:23:15.566Z,86.10
2019-03-23T19:25:45.145Z,85.67
2019-03-23T19:28:14.702Z,87.10
2019-03-23T19:30:44.252Z,95.87
2019-03-23T19:33:13.795Z,79.73
2019-03-23T19:35:43.373Z,78.20
2019-03-23T19:38:14.045Z,83.93
2019-03-23T19:40:43.599Z,79.53
2019-03-23T19:43:13.158Z,77.33
2019-03-23T19:45:42.721Z,76.10
2019-03-23T19:48:12.256Z,73.57
2019-03-23T19:50:41.863Z,73.83
2019-03-23T19:53:11.400Z,73.27
2019-03-23T19:55:40.967Z,73.50
2019-03-23T19:58:10.514Z,70.50
2019-03-23T20:00:40.055Z,67.73
2019-03-23T20:03:10.852Z,68.43
2019-03-23T20:05:40.719Z,59.50
2019-03-23T20:08:10.283Z,85.27
2019-03-23T20:10:40.149Z,80.87
2019-03-23T20:13:09.714Z,86.47
2019-03-23T20:15:40.190Z,81.90
2019-03-23T20:18:09.737Z,168.03
2019-03-23T20:20:39.310Z,111.70
2019-03-23T20:23:08.886Z,85.23
2019-03-23T20:25:39.801Z,81.43
2019-03-23T20:28:09.595Z,85.83
2019-03-23T20:30:39.300Z,73.57
2019-03-23T20:33:15.287Z,82.70
2019-03-23T20:35:40.024Z,78.43
2019-03-23T20:38:09.598Z,87.33
2019-03-23T20:40:39.149Z,95.80
2019-03-23T20:43:08.687Z,101.47
2019-03-23T20:45:38.243Z,96.90
2019-03-23T20:48:07.786Z,103.13
2019-03-23T20:50:37.371Z,103.37
2019-03-23T20:53:06.915Z,103.43
2019-03-23T20:55:36.789Z,107.97
2019-03-23T20:58:06.695Z,101.33
2019-03-23T21:00:36.273Z,118.37
2019-03-23T21:03:05.889Z,114.17
2019-03-23T21:05:35.738Z,192.70
2019-03-23T21:08:05.321Z,256.93
2019-03-23T21:10:35.243Z,402.43
2019-03-23T21:13:04.792Z,355.00
2019-03-23T21:15:35.503Z,311.53
2019-03-23T21:18:05.059Z,190.73
2019-03-23T21:20:34.606Z,144.93
2019-03-23T21:23:04.614Z,215.13
2019-03-23T21:25:34.170Z,191.10
2019-03-23T21:28:03.780Z,150.53
2019-03-23T21:30:33.314Z,153.73
2019-03-23T21:33:02.889Z,143.23
2019-03-23T21:35:32.440Z,125.77
2019-03-23T21:38:02.178Z,122.57
2019-03-23T21:40:31.685Z,119.97
2019-03-23T21:43:01.228Z,198.43
2019-03-23T21:45:43.150Z,136.93
2019-03-23T21:48:12.703Z,120.27
2019-03-23T21:50:47.324Z,116.57
2019-03-23T21:53:13.454Z,118.10
2019-03-23T21:55:43.141Z,115.60
2019-03-23T21:58:12.752Z,110.73
2019-03-23T22:00:42.639Z,106.87
2019-03-23T22:03:12.566Z,110.67
2019-03-23T22:05:42.467Z,105.87
2019-03-23T22:08:12.020Z,105.73
2019-03-23T22:10:41.903Z,113.07
2019-03-23T22:13:11.748Z,112.07
2019-03-23T22:15:41.291Z,120.10
2019-03-23T22:18:30.212Z,107.87
2019-03-23T22:20:59.858Z,111.40
2019-03-23T22:23:30.284Z,117.10
2019-03-23T22:25:59.934Z,116.73
2019-03-23T22:28:29.498Z,138.20
2019-03-23T22:30:59.053Z,128.10
2019-03-23T22:33:28.608Z,122.57
2019-03-23T22:35:58.341Z,185.03
2019-03-23T22:38:27.875Z,197.70
2019-03-23T22:40:57.430Z,168.00
2019-03-23T22:43:26.978Z,159.07
2019-03-23T22:45:56.795Z,162.53
2019-03-23T22:48:26.688Z,156.87
2019-03-23T22:50:56.233Z,151.90
2019-03-23T22:53:25.823Z,140.20
2019-03-23T22:55:55.723Z,161.60
2019-03-23T22:58:25.287Z,172.07
2019-03-23T23:00:55.048Z,177.07
2019-03-23T23:03:24.608Z,182.97
2019-03-23T23:05:54.164Z,231.17
2019-03-23T23:08:23.699Z,226.73
2019-03-23T23:10:53.338Z,233.03
2019-03-23T23:13:23.168Z,221.60
2019-03-23T23:15:52.721Z,227.70
2019-03-23T23:18:22.274Z,228.70
2019-03-23T23:20:51.823Z,235.90
2019-03-23T23:23:21.408Z,239.17
2019-03-23T23:25:50.939Z,227.20
2019-03-23T23:28:20.680Z,274.37
2019-03-23T23:30:51.315Z,237.53
2019-03-23T23:33:20.906Z,242.23
2019-03-23T23:35:50.462Z,235.23
2019-03-23T23:38:20.042Z,235.50
2019-03-23T23:40:49.606Z,234.27
2019-03-23T23:43:19.161Z,208.47
2019-03-23T23:45:48.717Z,204.73
2019-03-23T23:48:18.277Z,193.23
2019-03-23T23:50:48.674Z,177.20
2019-03-23T23:53:18.238Z,176.33
2019-03-23T23:55:47.795Z,176.80
2019-03-23T23:58:17.347Z,183.03
